sensor_id;sensor_type;location;lat;lon;timestamp;P1;durP1;ratioP1;P2;durP2;ratioP2
73571;SDS011;61854;48.510;-2.770;2022-07-09T00:02:25;8.60;;;4.68;;
73571;SDS011;61854;48.510;-2.770;2022-07-09T00:04:50;7.50;;;5.00;;
73571;SDS011;61854;48.510;-2.770;2022-07-09T00:07:16;10.93;;;5.20;;
73571;SDS011;61854;48.510;-2.770;2022-07-09T00:09:42;7.80;;;4.57;;
73571;SDS011;61854;48.510;-2.770;2022-07-09T00:12:08;9.85;;;4.95;;
73571;SDS011;61854;48.510;-2.770;2022-07-09T00:14:34;8.07;;;5.03;;
73571;SDS011;61854;48.510;-2.770;2022-07-09T00:17:00;8.88;;;4.82;;
73571;SDS011;61854;48.510;-2.770;2022-07-09T00:19:26;8.77;;;5.30;;
73571;SDS011;61854;48.510;-2.770;2022-07-09T00:21:51;11.40;;;5.53;;
73571;SDS011;61854;48.510;-2.770;2022-07-09T00:24:17;8.93;;;5.22;;
73571;SDS011;61854;48.510;-2.770;2022-07-09T00:26:43;8.50;;;5.43;;
73571;SDS011;61854;48.510;-2.770;2022-07-09T00:29:08;8.23;;;5.50;;
73571;SDS011;61854;48.510;-2.770;2022-07-09T00:31:34;9.10;;;5.38;;
73571;SDS011;61854;48.510;-2.770;2022-07-09T00:34:00;9.45;;;5.15;;
73571;SDS011;61854;48.510;-2.770;2022-07-09T00:36:25;9.30;;;5.60;;
73571;SDS011;61854;48.510;-2.770;2022-07-09T00:38:51;9.70;;;6.00;;
73571;SDS011;61854;48.510;-2.770;2022-07-09T00:41:16;10.23;;;5.40;;
73571;SDS011;61854;48.510;-2.770;2022-07-09T00:43:48;9.82;;;5.00;;
73571;SDS011;61854;48.510;-2.770;2022-07-09T00:46:15;9.43;;;5.30;;
73571;SDS011;61854;48.510;-2.770;2022-07-09T00:48:41;10.00;;;5.75;;
73571;SDS011;61854;48.510;-2.770;2022-07-09T00:51:07;8.95;;;5.82;;
73571;SDS011;61854;48.510;-2.770;2022-07-09T00:53:33;9.02;;;5.82;;
73571;SDS011;61854;48.510;-2.770;2022-07-09T00:56:00;9.27;;;6.10;;
73571;SDS011;61854;48.510;-2.770;2022-07-09T00:58:27;10.75;;;6.00;;
73571;SDS011;61854;48.510;-2.770;2022-07-09T01:00:53;8.63;;;6.07;;
73571;SDS011;61854;48.510;-2.770;2022-07-09T01:03:20;9.05;;;6.32;;
73571;SDS011;61854;48.510;-2.770;2022-07-09T01:05:46;9.32;;;6.28;;
73571;SDS011;61854;48.510;-2.770;2022-07-09T01:08:11;9.07;;;6.07;;
73571;SDS011;61854;48.510;-2.770;2022-07-09T01:10:37;11.40;;;6.05;;
73571;SDS011;61854;48.510;-2.770;2022-07-09T01:13:04;11.70;;;6.82;;
73571;SDS011;61854;48.510;-2.770;2022-07-09T01:15:30;13.15;;;7.28;;
73571;SDS011;61854;48.510;-2.770;2022-07-09T01:17:55;9.73;;;6.53;;
73571;SDS011;61854;48.510;-2.770;2022-07-09T01:20:23;14.38;;;7.15;;
73571;SDS011;61854;48.510;-2.770;2022-07-09T01:22:52;11.45;;;6.90;;
73571;SDS011;61854;48.510;-2.770;2022-07-09T01:25:18;11.90;;;6.93;;
73571;SDS011;61854;48.510;-2.770;2022-07-09T01:27:45;11.77;;;6.75;;
73571;SDS011;61854;48.510;-2.770;2022-07-09T01:30:22;11.68;;;7.88;;
73571;SDS011;61854;48.510;-2.770;2022-07-09T01:32:51;12.85;;;7.97;;
73571;SDS011;61854;48.510;-2.770;2022-07-09T01:35:18;13.60;;;8.18;;
73571;SDS011;61854;48.510;-2.770;2022-07-09T01:37:44;13.00;;;7.85;;
73571;SDS011;61854;48.510;-2.770;2022-07-09T01:40:09;13.63;;;8.10;;
73571;SDS011;61854;48.510;-2.770;2022-07-09T01:42:36;11.93;;;7.80;;
73571;SDS011;61854;48.510;-2.770;2022-07-09T01:45:01;13.82;;;7.90;;
73571;SDS011;61854;48.510;-2.770;2022-07-09T01:47:27;15.02;;;7.72;;
73571;SDS011;61854;48.510;-2.770;2022-07-09T01:49:53;11.10;;;7.82;;
73571;SDS011;61854;48.510;-2.770;2022-07-09T01:52:18;13.38;;;8.98;;
73571;SDS011;61854;48.510;-2.770;2022-07-09T01:54:44;14.02;;;9.10;;
73571;SDS011;61854;48.510;-2.770;2022-07-09T01:57:10;15.32;;;9.27;;
73571;SDS011;61854;48.510;-2.770;2022-07-09T01:59:35;15.65;;;8.27;;
73571;SDS011;61854;48.510;-2.770;2022-07-09T02:02:01;14.77;;;9.27;;
73571;SDS011;61854;48.510;-2.770;2022-07-09T02:04:27;14.73;;;9.40;;
73571;SDS011;61854;48.510;-2.770;2022-07-09T02:06:53;11.90;;;8.25;;
73571;SDS011;61854;48.510;-2.770;2022-07-09T02:09:18;13.10;;;9.27;;
73571;SDS011;61854;48.510;-2.770;2022-07-09T02:11:44;12.52;;;9.20;;
73571;SDS011;61854;48.510;-2.770;2022-07-09T02:14:09;12.63;;;8.30;;
73571;SDS011;61854;48.510;-2.770;2022-07-09T02:16:35;13.20;;;9.15;;
73571;SDS011;61854;48.510;-2.770;2022-07-09T02:19:01;13.65;;;9.50;;
73571;SDS011;61854;48.510;-2.770;2022-07-09T02:21:26;15.98;;;9.70;;
73571;SDS011;61854;48.510;-2.770;2022-07-09T02:23:52;17.52;;;9.85;;
73571;SDS011;61854;48.510;-2.770;2022-07-09T02:26:23;17.48;;;9.70;;
73571;SDS011;61854;48.510;-2.770;2022-07-09T02:28:50;16.48;;;10.73;;
73571;SDS011;61854;48.510;-2.770;2022-07-09T02:31:17;17.10;;;10.35;;
73571;SDS011;61854;48.510;-2.770;2022-07-09T02:33:42;17.42;;;9.95;;
73571;SDS011;61854;48.510;-2.770;2022-07-09T02:36:08;16.63;;;10.57;;
73571;SDS011;61854;48.510;-2.770;2022-07-09T02:38:33;16.95;;;11.02;;
73571;SDS011;61854;48.510;-2.770;2022-07-09T02:40:59;17.35;;;10.80;;
73571;SDS011;61854;48.510;-2.770;2022-07-09T02:43:26;17.25;;;10.93;;
73571;SDS011;61854;48.510;-2.770;2022-07-09T02:45:52;17.70;;;11.73;;
73571;SDS011;61854;48.510;-2.770;2022-07-09T02:48:20;16.10;;;10.57;;
73571;SDS011;61854;48.510;-2.770;2022-07-09T02:50:46;17.65;;;11.32;;
73571;SDS011;61854;48.510;-2.770;2022-07-09T02:53:12;16.10;;;11.20;;
73571;SDS011;61854;48.510;-2.770;2022-07-09T02:55:37;17.88;;;11.82;;
73571;SDS011;61854;48.510;-2.770;2022-07-09T02:58:03;17.88;;;12.68;;
73571;SDS011;61854;48.510;-2.770;2022-07-09T03:00:28;19.35;;;13.20;;
73571;SDS011;61854;48.510;-2.770;2022-07-09T03:02:54;18.60;;;12.27;;
73571;SDS011;61854;48.510;-2.770;2022-07-09T03:05:20;21.02;;;12.68;;
73571;SDS011;61854;48.510;-2.770;2022-07-09T03:07:45;19.75;;;11.90;;
73571;SDS011;61854;48.510;-2.770;2022-07-09T03:10:11;20.90;;;12.70;;
73571;SDS011;61854;48.510;-2.770;2022-07-09T03:12:37;20.75;;;14.13;;
73571;SDS011;61854;48.510;-2.770;2022-07-09T03:15:02;24.13;;;15.27;;
73571;SDS011;61854;48.510;-2.770;2022-07-09T03:17:28;23.23;;;15.18;;
73571;SDS011;61854;48.510;-2.770;2022-07-09T03:19:54;26.13;;;17.42;;
73571;SDS011;61854;48.510;-2.770;2022-07-09T03:22:20;26.23;;;16.40;;
73571;SDS011;61854;48.510;-2.770;2022-07-09T03:24:45;26.50;;;16.83;;
73571;SDS011;61854;48.510;-2.770;2022-07-09T03:27:11;23.70;;;16.52;;
73571;SDS011;61854;48.510;-2.770;2022-07-09T03:29:36;26.50;;;16.80;;
73571;SDS011;61854;48.510;-2.770;2022-07-09T03:32:02;25.27;;;17.05;;
73571;SDS011;61854;48.510;-2.770;2022-07-09T03:34:28;23.95;;;16.02;;
73571;SDS011;61854;48.510;-2.770;2022-07-09T03:36:54;23.23;;;16.25;;
73571;SDS011;61854;48.510;-2.770;2022-07-09T03:39:20;27.20;;;18.30;;
73571;SDS011;61854;48.510;-2.770;2022-07-09T03:41:46;27.95;;;18.58;;
73571;SDS011;61854;48.510;-2.770;2022-07-09T03:44:11;25.73;;;17.63;;
73571;SDS011;61854;48.510;-2.770;2022-07-09T03:46:37;26.73;;;18.20;;
73571;SDS011;61854;48.510;-2.770;2022-07-09T03:49:03;29.42;;;19.38;;
73571;SDS011;61854;48.510;-2.770;2022-07-09T03:51:28;30.80;;;18.98;;
73571;SDS011;61854;48.510;-2.770;2022-07-09T03:53:54;28.08;;;18.17;;
73571;SDS011;61854;48.510;-2.770;2022-07-09T03:56:20;25.23;;;17.80;;
73571;SDS011;61854;48.510;-2.770;2022-07-09T03:58:45;30.00;;;18.45;;
73571;SDS011;61854;48.510;-2.770;2022-07-09T04:01:11;30.73;;;19.17;;
73571;SDS011;61854;48.510;-2.770;2022-07-09T04:03:36;24.83;;;18.58;;
73571;SDS011;61854;48.510;-2.770;2022-07-09T04:06:02;27.40;;;19.08;;
73571;SDS011;61854;48.510;-2.770;2022-07-09T04:08:28;27.20;;;19.17;;
73571;SDS011;61854;48.510;-2.770;2022-07-09T04:10:54;30.45;;;21.00;;
73571;SDS011;61854;48.510;-2.770;2022-07-09T04:13:19;37.10;;;19.42;;
73571;SDS011;61854;48.510;-2.770;2022-07-09T04:15:45;31.70;;;19.05;;
73571;SDS011;61854;48.510;-2.770;2022-07-09T04:18:12;29.55;;;19.75;;
73571;SDS011;61854;48.510;-2.770;2022-07-09T04:20:41;28.80;;;18.85;;
73571;SDS011;61854;48.510;-2.770;2022-07-09T04:23:06;27.25;;;18.00;;
73571;SDS011;61854;48.510;-2.770;2022-07-09T04:25:32;26.35;;;18.27;;
73571;SDS011;61854;48.510;-2.770;2022-07-09T04:27:58;28.55;;;19.83;;
73571;SDS011;61854;48.510;-2.770;2022-07-09T04:30:25;33.33;;;20.85;;
73571;SDS011;61854;48.510;-2.770;2022-07-09T04:32:51;32.55;;;21.45;;
73571;SDS011;61854;48.510;-2.770;2022-07-09T04:35:16;33.13;;;21.58;;
73571;SDS011;61854;48.510;-2.770;2022-07-09T04:40:10;35.35;;;21.65;;
73571;SDS011;61854;48.510;-2.770;2022-07-09T04:42:37;33.80;;;21.55;;
73571;SDS011;61854;48.510;-2.770;2022-07-09T04:45:03;29.70;;;19.17;;
73571;SDS011;61854;48.510;-2.770;2022-07-09T04:47:29;26.63;;;19.48;;
73571;SDS011;61854;48.510;-2.770;2022-07-09T04:49:54;30.38;;;20.15;;
73571;SDS011;61854;48.510;-2.770;2022-07-09T04:52:20;29.13;;;19.77;;
73571;SDS011;61854;48.510;-2.770;2022-07-09T04:54:46;28.63;;;18.50;;
73571;SDS011;61854;48.510;-2.770;2022-07-09T04:57:12;35.38;;;20.38;;
73571;SDS011;61854;48.510;-2.770;2022-07-09T04:59:38;29.48;;;17.75;;
73571;SDS011;61854;48.510;-2.770;2022-07-09T05:02:04;29.75;;;19.30;;
73571;SDS011;61854;48.510;-2.770;2022-07-09T05:04:30;31.08;;;19.70;;
73571;SDS011;61854;48.510;-2.770;2022-07-09T05:06:56;29.13;;;18.33;;
73571;SDS011;61854;48.510;-2.770;2022-07-09T05:09:21;28.90;;;19.10;;
73571;SDS011;61854;48.510;-2.770;2022-07-09T05:11:47;25.00;;;17.60;;
73571;SDS011;61854;48.510;-2.770;2022-07-09T05:14:13;26.55;;;18.35;;
73571;SDS011;61854;48.510;-2.770;2022-07-09T05:16:39;29.20;;;18.10;;
73571;SDS011;61854;48.510;-2.770;2022-07-09T05:19:09;25.90;;;18.38;;
73571;SDS011;61854;48.510;-2.770;2022-07-09T05:21:36;25.00;;;18.13;;
73571;SDS011;61854;48.510;-2.770;2022-07-09T05:24:02;29.73;;;17.60;;
73571;SDS011;61854;48.510;-2.770;2022-07-09T05:26:28;25.63;;;17.83;;
73571;SDS011;61854;48.510;-2.770;2022-07-09T05:28:54;23.98;;;16.20;;
73571;SDS011;61854;48.510;-2.770;2022-07-09T05:31:20;23.33;;;17.40;;
73571;SDS011;61854;48.510;-2.770;2022-07-09T05:33:46;26.15;;;17.38;;
73571;SDS011;61854;48.510;-2.770;2022-07-09T05:36:12;25.02;;;17.33;;
73571;SDS011;61854;48.510;-2.770;2022-07-09T05:38:38;25.83;;;17.85;;
73571;SDS011;61854;48.510;-2.770;2022-07-09T05:41:03;26.45;;;17.48;;
73571;SDS011;61854;48.510;-2.770;2022-07-09T05:43:29;25.08;;;17.50;;
73571;SDS011;61854;48.510;-2.770;2022-07-09T05:45:55;23.63;;;16.17;;
73571;SDS011;61854;48.510;-2.770;2022-07-09T05:48:21;25.50;;;17.85;;
73571;SDS011;61854;48.510;-2.770;2022-07-09T05:50:46;24.55;;;15.82;;
73571;SDS011;61854;48.510;-2.770;2022-07-09T05:53:12;23.23;;;15.98;;
73571;SDS011;61854;48.510;-2.770;2022-07-09T05:55:38;20.30;;;14.65;;
73571;SDS011;61854;48.510;-2.770;2022-07-09T05:58:03;18.95;;;13.90;;
73571;SDS011;61854;48.510;-2.770;2022-07-09T06:00:29;20.08;;;13.50;;
73571;SDS011;61854;48.510;-2.770;2022-07-09T06:02:55;20.25;;;12.43;;
73571;SDS011;61854;48.510;-2.770;2022-07-09T06:05:20;15.35;;;10.82;;
73571;SDS011;61854;48.510;-2.770;2022-07-09T06:07:46;16.00;;;10.80;;
73571;SDS011;61854;48.510;-2.770;2022-07-09T06:10:12;13.93;;;9.77;;
73571;SDS011;61854;48.510;-2.770;2022-07-09T06:12:39;15.75;;;9.55;;
73571;SDS011;61854;48.510;-2.770;2022-07-09T06:15:07;12.70;;;8.50;;
73571;SDS011;61854;48.510;-2.770;2022-07-09T06:17:34;14.52;;;8.15;;
73571;SDS011;61854;48.510;-2.770;2022-07-09T06:19:59;10.77;;;7.65;;
73571;SDS011;61854;48.510;-2.770;2022-07-09T06:22:25;8.80;;;7.07;;
73571;SDS011;61854;48.510;-2.770;2022-07-09T06:24:51;9.73;;;6.45;;
73571;SDS011;61854;48.510;-2.770;2022-07-09T06:27:16;9.93;;;6.68;;
73571;SDS011;61854;48.510;-2.770;2022-07-09T06:29:42;8.15;;;6.22;;
73571;SDS011;61854;48.510;-2.770;2022-07-09T06:32:07;11.75;;;6.45;;
73571;SDS011;61854;48.510;-2.770;2022-07-09T06:34:33;10.65;;;6.07;;
73571;SDS011;61854;48.510;-2.770;2022-07-09T06:36:59;11.20;;;5.40;;
73571;SDS011;61854;48.510;-2.770;2022-07-09T06:39:25;6.70;;;4.93;;
73571;SDS011;61854;48.510;-2.770;2022-07-09T06:42:09;6.70;;;4.43;;
73571;SDS011;61854;48.510;-2.770;2022-07-09T06:44:35;6.22;;;3.80;;
73571;SDS011;61854;48.510;-2.770;2022-07-09T06:47:01;9.05;;;3.75;;
73571;SDS011;61854;48.510;-2.770;2022-07-09T06:49:27;8.23;;;4.15;;
73571;SDS011;61854;48.510;-2.770;2022-07-09T06:51:53;7.50;;;3.50;;
73571;SDS011;61854;48.510;-2.770;2022-07-09T06:54:19;8.40;;;3.35;;
73571;SDS011;61854;48.510;-2.770;2022-07-09T06:56:44;6.43;;;3.40;;
73571;SDS011;61854;48.510;-2.770;2022-07-09T06:59:10;6.38;;;3.38;;
73571;SDS011;61854;48.510;-2.770;2022-07-09T07:01:36;8.80;;;3.08;;
73571;SDS011;61854;48.510;-2.770;2022-07-09T07:04:01;6.45;;;3.42;;
73571;SDS011;61854;48.510;-2.770;2022-07-09T07:06:27;9.15;;;3.38;;
73571;SDS011;61854;48.510;-2.770;2022-07-09T07:08:52;9.63;;;3.50;;
73571;SDS011;61854;48.510;-2.770;2022-07-09T07:11:18;5.55;;;3.30;;
73571;SDS011;61854;48.510;-2.770;2022-07-09T07:13:44;6.45;;;3.17;;
73571;SDS011;61854;48.510;-2.770;2022-07-09T07:16:09;7.28;;;2.60;;
73571;SDS011;61854;48.510;-2.770;2022-07-09T07:18:35;7.53;;;3.22;;
73571;SDS011;61854;48.510;-2.770;2022-07-09T07:21:00;5.50;;;3.33;;
73571;SDS011;61854;48.510;-2.770;2022-07-09T07:23:26;7.45;;;3.40;;
73571;SDS011;61854;48.510;-2.770;2022-07-09T07:25:52;5.97;;;3.15;;
73571;SDS011;61854;48.510;-2.770;2022-07-09T07:28:17;8.02;;;2.90;;
73571;SDS011;61854;48.510;-2.770;2022-07-09T07:30:43;7.05;;;2.92;;
73571;SDS011;61854;48.510;-2.770;2022-07-09T07:33:08;6.88;;;2.90;;
73571;SDS011;61854;48.510;-2.770;2022-07-09T07:35:34;5.00;;;2.88;;
73571;SDS011;61854;48.510;-2.770;2022-07-09T07:38:00;7.20;;;2.97;;
73571;SDS011;61854;48.510;-2.770;2022-07-09T07:40:25;7.38;;;2.78;;
73571;SDS011;61854;48.510;-2.770;2022-07-09T07:42:51;5.05;;;2.88;;
73571;SDS011;61854;48.510;-2.770;2022-07-09T07:45:17;5.63;;;2.92;;
73571;SDS011;61854;48.510;-2.770;2022-07-09T07:47:42;7.40;;;3.20;;
73571;SDS011;61854;48.510;-2.770;2022-07-09T07:50:08;6.30;;;3.20;;
73571;SDS011;61854;48.510;-2.770;2022-07-09T07:52:34;7.43;;;2.85;;
73571;SDS011;61854;48.510;-2.770;2022-07-09T07:54:59;7.07;;;2.97;;
73571;SDS011;61854;48.510;-2.770;2022-07-09T07:57:25;5.47;;;2.88;;
73571;SDS011;61854;48.510;-2.770;2022-07-09T07:59:51;4.97;;;2.40;;
73571;SDS011;61854;48.510;-2.770;2022-07-09T08:02:16;5.88;;;2.40;;
73571;SDS011;61854;48.510;-2.770;2022-07-09T08:04:42;6.43;;;2.78;;
73571;SDS011;61854;48.510;-2.770;2022-07-09T08:07:08;5.65;;;2.55;;
73571;SDS011;61854;48.510;-2.770;2022-07-09T08:09:33;6.85;;;2.90;;
73571;SDS011;61854;48.510;-2.770;2022-07-09T08:11:59;6.18;;;2.85;;
73571;SDS011;61854;48.510;-2.770;2022-07-09T08:14:25;6.47;;;2.75;;
73571;SDS011;61854;48.510;-2.770;2022-07-09T08:16:54;6.28;;;2.70;;
73571;SDS011;61854;48.510;-2.770;2022-07-09T08:19:19;6.07;;;2.47;;
73571;SDS011;61854;48.510;-2.770;2022-07-09T08:21:45;6.10;;;2.67;;
73571;SDS011;61854;48.510;-2.770;2022-07-09T08:24:10;7.30;;;3.17;;
73571;SDS011;61854;48.510;-2.770;2022-07-09T08:26:36;6.45;;;2.47;;
73571;SDS011;61854;48.510;-2.770;2022-07-09T08:29:02;5.18;;;2.33;;
73571;SDS011;61854;48.510;-2.770;2022-07-09T08:31:27;5.50;;;2.92;;
73571;SDS011;61854;48.510;-2.770;2022-07-09T08:33:53;6.40;;;2.40;;
73571;SDS011;61854;48.510;-2.770;2022-07-09T08:36:20;5.05;;;2.50;;
73571;SDS011;61854;48.510;-2.770;2022-07-09T08:38:45;5.15;;;2.22;;
73571;SDS011;61854;48.510;-2.770;2022-07-09T08:41:12;6.00;;;2.65;;
73571;SDS011;61854;48.510;-2.770;2022-07-09T08:43:40;6.55;;;2.42;;
73571;SDS011;61854;48.510;-2.770;2022-07-09T08:46:06;5.38;;;2.38;;
73571;SDS011;61854;48.510;-2.770;2022-07-09T08:48:32;6.75;;;2.50;;
73571;SDS011;61854;48.510;-2.770;2022-07-09T08:50:59;4.35;;;2.22;;
73571;SDS011;61854;48.510;-2.770;2022-07-09T08:53:26;4.28;;;1.90;;
73571;SDS011;61854;48.510;-2.770;2022-07-09T08:55:53;5.13;;;2.08;;
73571;SDS011;61854;48.510;-2.770;2022-07-09T08:58:19;5.68;;;2.22;;
73571;SDS011;61854;48.510;-2.770;2022-07-09T09:00:45;5.35;;;2.60;;
73571;SDS011;61854;48.510;-2.770;2022-07-09T09:03:13;7.53;;;2.20;;
73571;SDS011;61854;48.510;-2.770;2022-07-09T09:05:38;4.25;;;2.10;;
73571;SDS011;61854;48.510;-2.770;2022-07-09T09:08:20;9.75;;;2.33;;
73571;SDS011;61854;48.510;-2.770;2022-07-09T09:10:49;5.95;;;2.72;;
73571;SDS011;61854;48.510;-2.770;2022-07-09T09:13:15;5.15;;;2.30;;
73571;SDS011;61854;48.510;-2.770;2022-07-09T09:15:42;4.32;;;2.28;;
73571;SDS011;61854;48.510;-2.770;2022-07-09T09:18:08;4.78;;;2.30;;
73571;SDS011;61854;48.510;-2.770;2022-07-09T09:20:34;4.47;;;2.28;;
73571;SDS011;61854;48.510;-2.770;2022-07-09T09:22:59;6.10;;;2.60;;
73571;SDS011;61854;48.510;-2.770;2022-07-09T09:25:27;7.38;;;2.47;;
73571;SDS011;61854;48.510;-2.770;2022-07-09T09:27:54;5.93;;;2.60;;
73571;SDS011;61854;48.510;-2.770;2022-07-09T09:30:21;6.20;;;2.77;;
73571;SDS011;61854;48.510;-2.770;2022-07-09T09:33:01;5.20;;;2.33;;
73571;SDS011;61854;48.510;-2.770;2022-07-09T09:35:29;7.60;;;2.40;;
73571;SDS011;61854;48.510;-2.770;2022-07-09T09:37:57;7.97;;;2.35;;
73571;SDS011;61854;48.510;-2.770;2022-07-09T09:40:23;6.13;;;2.70;;
73571;SDS011;61854;48.510;-2.770;2022-07-09T09:42:50;8.73;;;2.53;;
73571;SDS011;61854;48.510;-2.770;2022-07-09T09:45:17;7.03;;;2.90;;
73571;SDS011;61854;48.510;-2.770;2022-07-09T09:47:47;7.78;;;2.70;;
73571;SDS011;61854;48.510;-2.770;2022-07-09T09:50:16;6.70;;;2.75;;
73571;SDS011;61854;48.510;-2.770;2022-07-09T09:52:45;6.80;;;2.70;;
73571;SDS011;61854;48.510;-2.770;2022-07-09T09:55:12;10.88;;;2.97;;
73571;SDS011;61854;48.510;-2.770;2022-07-09T09:57:39;6.63;;;2.55;;
73571;SDS011;61854;48.510;-2.770;2022-07-09T10:00:05;8.07;;;3.45;;
73571;SDS011;61854;48.510;-2.770;2022-07-09T10:02:32;8.27;;;3.00;;
73571;SDS011;61854;48.510;-2.770;2022-07-09T10:05:00;9.73;;;3.30;;
73571;SDS011;61854;48.510;-2.770;2022-07-09T10:07:26;6.47;;;2.75;;
73571;SDS011;61854;48.510;-2.770;2022-07-09T10:09:57;9.77;;;3.53;;
73571;SDS011;61854;48.510;-2.770;2022-07-09T10:12:30;8.55;;;3.53;;
73571;SDS011;61854;48.510;-2.770;2022-07-09T10:14:59;6.88;;;3.00;;
73571;SDS011;61854;48.510;-2.770;2022-07-09T10:17:25;4.53;;;2.90;;
73571;SDS011;61854;48.510;-2.770;2022-07-09T10:19:55;8.02;;;3.67;;
73571;SDS011;61854;48.510;-2.770;2022-07-09T10:22:33;9.48;;;3.63;;
73571;SDS011;61854;48.510;-2.770;2022-07-09T10:25:10;10.50;;;3.70;;
73571;SDS011;61854;48.510;-2.770;2022-07-09T10:27:42;12.10;;;3.53;;
73571;SDS011;61854;48.510;-2.770;2022-07-09T10:30:33;10.30;;;3.75;;
73571;SDS011;61854;48.510;-2.770;2022-07-09T10:33:21;9.73;;;3.30;;
73571;SDS011;61854;48.510;-2.770;2022-07-09T10:35:56;10.43;;;3.00;;
73571;SDS011;61854;48.510;-2.770;2022-07-09T10:38:22;8.93;;;3.63;;
73571;SDS011;61854;48.510;-2.770;2022-07-09T10:41:04;9.43;;;3.78;;
73571;SDS011;61854;48.510;-2.770;2022-07-09T10:43:39;9.77;;;3.80;;
73571;SDS011;61854;48.510;-2.770;2022-07-09T10:46:09;6.32;;;3.50;;
73571;SDS011;61854;48.510;-2.770;2022-07-09T10:48:37;10.00;;;3.65;;
73571;SDS011;61854;48.510;-2.770;2022-07-09T10:51:03;5.88;;;3.15;;
73571;SDS011;61854;48.510;-2.770;2022-07-09T10:53:29;6.50;;;3.25;;
73571;SDS011;61854;48.510;-2.770;2022-07-09T10:55:55;5.85;;;2.88;;
73571;SDS011;61854;48.510;-2.770;2022-07-09T10:58:21;6.55;;;3.22;;
73571;SDS011;61854;48.510;-2.770;2022-07-09T11:00:59;7.55;;;3.20;;
73571;SDS011;61854;48.510;-2.770;2022-07-09T11:03:27;5.43;;;3.20;;
73571;SDS011;61854;48.510;-2.770;2022-07-09T11:05:54;10.30;;;2.92;;
73571;SDS011;61854;48.510;-2.770;2022-07-09T11:08:20;6.45;;;2.88;;
73571;SDS011;61854;48.510;-2.770;2022-07-09T11:10:45;5.20;;;2.78;;
73571;SDS011;61854;48.510;-2.770;2022-07-09T11:13:11;6.97;;;3.10;;
73571;SDS011;61854;48.510;-2.770;2022-07-09T11:15:37;7.07;;;2.67;;
73571;SDS011;61854;48.510;-2.770;2022-07-09T11:20:31;8.40;;;3.40;;
73571;SDS011;61854;48.510;-2.770;2022-07-09T11:23:01;5.88;;;3.33;;
73571;SDS011;61854;48.510;-2.770;2022-07-09T11:25:27;6.53;;;2.97;;
73571;SDS011;61854;48.510;-2.770;2022-07-09T11:27:57;8.38;;;3.22;;
73571;SDS011;61854;48.510;-2.770;2022-07-09T11:30:23;7.35;;;3.45;;
73571;SDS011;61854;48.510;-2.770;2022-07-09T11:32:50;6.65;;;3.42;;
73571;SDS011;61854;48.510;-2.770;2022-07-09T11:35:26;6.75;;;3.30;;
73571;SDS011;61854;48.510;-2.770;2022-07-09T11:37:53;7.63;;;3.55;;
73571;SDS011;61854;48.510;-2.770;2022-07-09T11:40:20;6.55;;;3.35;;
73571;SDS011;61854;48.510;-2.770;2022-07-09T11:42:46;10.13;;;3.45;;
73571;SDS011;61854;48.510;-2.770;2022-07-09T11:45:12;9.60;;;3.40;;
73571;SDS011;61854;48.510;-2.770;2022-07-09T11:47:38;9.30;;;3.70;;
73571;SDS011;61854;48.510;-2.770;2022-07-09T11:50:11;8.23;;;3.65;;
73571;SDS011;61854;48.510;-2.770;2022-07-09T11:52:43;8.02;;;3.90;;
73571;SDS011;61854;48.510;-2.770;2022-07-09T11:55:17;17.50;;;4.18;;
73571;SDS011;61854;48.510;-2.770;2022-07-09T11:57:55;7.38;;;3.80;;
73571;SDS011;61854;48.510;-2.770;2022-07-09T12:00:31;5.55;;;3.65;;
73571;SDS011;61854;48.510;-2.770;2022-07-09T12:02:59;7.68;;;4.07;;
73571;SDS011;61854;48.510;-2.770;2022-07-09T12:05:26;9.85;;;4.55;;
73571;SDS011;61854;48.510;-2.770;2022-07-09T12:08:05;8.25;;;4.75;;
73571;SDS011;61854;48.510;-2.770;2022-07-09T12:10:35;9.88;;;4.90;;
73571;SDS011;61854;48.510;-2.770;2022-07-09T12:13:03;11.60;;;4.90;;
73571;SDS011;61854;48.510;-2.770;2022-07-09T12:15:29;8.68;;;4.60;;
73571;SDS011;61854;48.510;-2.770;2022-07-09T12:18:01;9.40;;;5.45;;
73571;SDS011;61854;48.510;-2.770;2022-07-09T12:20:28;8.75;;;5.43;;
73571;SDS011;61854;48.510;-2.770;2022-07-09T12:22:55;6.75;;;4.60;;
73571;SDS011;61854;48.510;-2.770;2022-07-09T12:25:21;10.15;;;4.63;;
73571;SDS011;61854;48.510;-2.770;2022-07-09T12:27:47;7.53;;;4.65;;
73571;SDS011;61854;48.510;-2.770;2022-07-09T12:30:14;8.70;;;4.65;;
73571;SDS011;61854;48.510;-2.770;2022-07-09T12:32:40;6.68;;;4.43;;
73571;SDS011;61854;48.510;-2.770;2022-07-09T12:35:06;8.02;;;4.50;;
73571;SDS011;61854;48.510;-2.770;2022-07-09T12:37:33;8.52;;;4.80;;
73571;SDS011;61854;48.510;-2.770;2022-07-09T12:39:59;12.20;;;5.15;;
73571;SDS011;61854;48.510;-2.770;2022-07-09T12:42:25;11.90;;;4.60;;
73571;SDS011;61854;48.510;-2.770;2022-07-09T12:44:51;7.57;;;4.45;;
73571;SDS011;61854;48.510;-2.770;2022-07-09T12:47:17;7.88;;;4.70;;
73571;SDS011;61854;48.510;-2.770;2022-07-09T12:49:43;6.55;;;4.30;;
73571;SDS011;61854;48.510;-2.770;2022-07-09T12:52:09;7.80;;;4.68;;
73571;SDS011;61854;48.510;-2.770;2022-07-09T12:54:35;10.88;;;4.55;;
73571;SDS011;61854;48.510;-2.770;2022-07-09T12:57:00;14.48;;;4.47;;
73571;SDS011;61854;48.510;-2.770;2022-07-09T12:59:26;8.55;;;3.90;;
73571;SDS011;61854;48.510;-2.770;2022-07-09T13:01:52;12.70;;;4.80;;
73571;SDS011;61854;48.510;-2.770;2022-07-09T13:04:17;6.32;;;3.65;;
73571;SDS011;61854;48.510;-2.770;2022-07-09T13:06:43;8.30;;;3.70;;
73571;SDS011;61854;48.510;-2.770;2022-07-09T13:09:09;13.02;;;3.40;;
73571;SDS011;61854;48.510;-2.770;2022-07-09T13:11:35;5.55;;;3.22;;
73571;SDS011;61854;48.510;-2.770;2022-07-09T13:14:03;7.30;;;3.35;;
73571;SDS011;61854;48.510;-2.770;2022-07-09T13:16:29;12.18;;;3.80;;
73571;SDS011;61854;48.510;-2.770;2022-07-09T13:18:55;9.98;;;3.20;;
73571;SDS011;61854;48.510;-2.770;2022-07-09T13:21:21;8.88;;;3.25;;
73571;SDS011;61854;48.510;-2.770;2022-07-09T13:23:50;10.80;;;2.95;;
73571;SDS011;61854;48.510;-2.770;2022-07-09T13:26:16;12.73;;;3.45;;
73571;SDS011;61854;48.510;-2.770;2022-07-09T13:28:42;7.53;;;2.90;;
73571;SDS011;61854;48.510;-2.770;2022-07-09T13:31:08;7.47;;;2.70;;
73571;SDS011;61854;48.510;-2.770;2022-07-09T13:33:34;5.00;;;2.72;;
73571;SDS011;61854;48.510;-2.770;2022-07-09T13:36:01;6.28;;;2.80;;
73571;SDS011;61854;48.510;-2.770;2022-07-09T13:38:27;6.28;;;2.70;;
73571;SDS011;61854;48.510;-2.770;2022-07-09T13:40:54;5.72;;;2.78;;
73571;SDS011;61854;48.510;-2.770;2022-07-09T13:43:20;8.00;;;2.70;;
73571;SDS011;61854;48.510;-2.770;2022-07-09T13:45:46;9.38;;;2.92;;
73571;SDS011;61854;48.510;-2.770;2022-07-09T13:48:12;7.13;;;3.08;;
73571;SDS011;61854;48.510;-2.770;2022-07-09T13:50:37;8.05;;;2.78;;
73571;SDS011;61854;48.510;-2.770;2022-07-09T13:53:03;7.65;;;2.95;;
73571;SDS011;61854;48.510;-2.770;2022-07-09T13:55:29;7.80;;;2.60;;
73571;SDS011;61854;48.510;-2.770;2022-07-09T13:57:55;7.63;;;2.63;;
73571;SDS011;61854;48.510;-2.770;2022-07-09T14:00:21;7.10;;;2.70;;
73571;SDS011;61854;48.510;-2.770;2022-07-09T14:02:47;6.18;;;2.65;;
73571;SDS011;61854;48.510;-2.770;2022-07-09T14:05:13;5.65;;;2.70;;
73571;SDS011;61854;48.510;-2.770;2022-07-09T14:07:39;4.38;;;2.20;;
73571;SDS011;61854;48.510;-2.770;2022-07-09T14:10:05;8.40;;;2.40;;
73571;SDS011;61854;48.510;-2.770;2022-07-09T14:12:31;7.40;;;2.65;;
73571;SDS011;61854;48.510;-2.770;2022-07-09T14:14:57;4.70;;;2.15;;
73571;SDS011;61854;48.510;-2.770;2022-07-09T14:17:24;6.18;;;2.22;;
73571;SDS011;61854;48.510;-2.770;2022-07-09T14:19:50;5.38;;;2.03;;
73571;SDS011;61854;48.510;-2.770;2022-07-09T14:22:15;7.13;;;2.20;;
73571;SDS011;61854;48.510;-2.770;2022-07-09T14:24:41;6.28;;;2.00;;
73571;SDS011;61854;48.510;-2.770;2022-07-09T14:27:07;3.60;;;1.95;;
73571;SDS011;61854;48.510;-2.770;2022-07-09T14:29:32;4.43;;;2.20;;